sensor_id;sensor_type;location;lat;lon;timestamp;temperature;humidity
59075;DHT22;44860;53.020;6.738;2024-01-30T00:00:30;6.60;99.90
59075;DHT22;44860;53.020;6.738;2024-01-30T00:02:56;6.60;99.90
59075;DHT22;44860;53.020;6.738;2024-01-30T00:05:22;6.50;99.90
59075;DHT22;44860;53.020;6.738;2024-01-30T00:07:53;6.50;99.90
59075;DHT22;44860;53.020;6.738;2024-01-30T00:10:19;6.50;99.90
59075;DHT22;44860;53.020;6.738;2024-01-30T00:12:46;6.50;99.90
59075;DHT22;44860;53.020;6.738;2024-01-30T00:15:12;6.50;99.90
59075;DHT22;44860;53.020;6.738;2024-01-30T00:17:38;6.50;99.90
59075;DHT22;44860;53.020;6.738;2024-01-30T00:20:04;6.50;99.90
59075;DHT22;44860;53.020;6.738;2024-01-30T00:22:34;6.60;99.90
59075;DHT22;44860;53.020;6.738;2024-01-30T00:25:00;6.60;99.90
59075;DHT22;44860;53.020;6.738;2024-01-30T00:27:26;6.60;99.90
59075;DHT22;44860;53.020;6.738;2024-01-30T00:29:53;6.60;99.90
59075;DHT22;44860;53.020;6.738;2024-01-30T00:32:18;6.60;99.90
59075;DHT22;44860;53.020;6.738;2024-01-30T00:34:44;6.60;99.90
59075;DHT22;44860;53.020;6.738;2024-01-30T00:37:10;6.70;99.90
59075;DHT22;44860;53.020;6.738;2024-01-30T00:39:36;6.70;99.90
59075;DHT22;44860;53.020;6.738;2024-01-30T00:42:02;6.80;99.90
59075;DHT22;44860;53.020;6.738;2024-01-30T00:44:27;6.80;99.90
59075;DHT22;44860;53.020;6.738;2024-01-30T00:46:53;6.80;99.90
59075;DHT22;44860;53.020;6.738;2024-01-30T00:49:19;6.90;99.90
59075;DHT22;44860;53.020;6.738;2024-01-30T00:51:46;6.90;99.90
59075;DHT22;44860;53.020;6.738;2024-01-30T00:54:11;7.00;99.90
59075;DHT22;44860;53.020;6.738;2024-01-30T00:56:37;7.00;99.90
59075;DHT22;44860;53.020;6.738;2024-01-30T00:59:03;7.00;99.90
59075;DHT22;44860;53.020;6.738;2024-01-30T01:01:28;7.10;99.90
59075;DHT22;44860;53.020;6.738;2024-01-30T01:03:54;7.10;99.90
59075;DHT22;44860;53.020;6.738;2024-01-30T01:06:22;7.10;99.90
59075;DHT22;44860;53.020;6.738;2024-01-30T01:08:47;7.10;99.90
59075;DHT22;44860;53.020;6.738;2024-01-30T01:11:13;7.10;99.90
59075;DHT22;44860;53.020;6.738;2024-01-30T01:13:39;7.10;99.90
59075;DHT22;44860;53.020;6.738;2024-01-30T01:16:05;7.10;99.90
59075;DHT22;44860;53.020;6.738;2024-01-30T01:18:31;7.10;99.90
59075;DHT22;44860;53.020;6.738;2024-01-30T01:20:56;7.10;99.90
59075;DHT22;44860;53.020;6.738;2024-01-30T01:23:22;7.10;99.90
59075;DHT22;44860;53.020;6.738;2024-01-30T01:25:48;7.10;99.90
59075;DHT22;44860;53.020;6.738;2024-01-30T01:28:13;7.10;99.90
59075;DHT22;44860;53.020;6.738;2024-01-30T01:30:39;7.10;99.90
59075;DHT22;44860;53.020;6.738;2024-01-30T01:33:10;7.10;99.90
59075;DHT22;44860;53.020;6.738;2024-01-30T01:35:35;7.10;99.90
59075;DHT22;44860;53.020;6.738;2024-01-30T01:38:01;7.10;99.90
59075;DHT22;44860;53.020;6.738;2024-01-30T01:40:28;7.20;99.90
59075;DHT22;44860;53.020;6.738;2024-01-30T01:42:55;7.20;99.90
59075;DHT22;44860;53.020;6.738;2024-01-30T01:45:21;7.20;99.90
59075;DHT22;44860;53.020;6.738;2024-01-30T01:47:50;7.20;99.90
59075;DHT22;44860;53.020;6.738;2024-01-30T01:50:18;7.20;99.90
59075;DHT22;44860;53.020;6.738;2024-01-30T01:52:45;7.20;99.90
59075;DHT22;44860;53.020;6.738;2024-01-30T01:55:12;7.20;99.90
59075;DHT22;44860;53.020;6.738;2024-01-30T01:57:39;7.30;99.90
59075;DHT22;44860;53.020;6.738;2024-01-30T02:00:05;7.30;99.90
59075;DHT22;44860;53.020;6.738;2024-01-30T02:02:35;7.30;99.90
59075;DHT22;44860;53.020;6.738;2024-01-30T02:05:32;7.30;99.90
59075;DHT22;44860;53.020;6.738;2024-01-30T02:07:58;7.30;99.90
59075;DHT22;44860;53.020;6.738;2024-01-30T02:10:24;7.30;99.90
59075;DHT22;44860;53.020;6.738;2024-01-30T02:13:11;7.40;99.90
59075;DHT22;44860;53.020;6.738;2024-01-30T02:15:37;7.40;99.90
59075;DHT22;44860;53.020;6.738;2024-01-30T02:18:03;7.40;99.90
59075;DHT22;44860;53.020;6.738;2024-01-30T02:20:35;7.40;99.90
59075;DHT22;44860;53.020;6.738;2024-01-30T02:23:02;7.40;99.90
59075;DHT22;44860;53.020;6.738;2024-01-30T02:25:38;7.40;99.90
59075;DHT22;44860;53.020;6.738;2024-01-30T02:28:04;7.40;99.90
59075;DHT22;44860;53.020;6.738;2024-01-30T02:30:30;7.40;99.90
59075;DHT22;44860;53.020;6.738;2024-01-30T02:32:55;7.40;99.90
59075;DHT22;44860;53.020;6.738;2024-01-30T02:35:21;7.40;99.90
59075;DHT22;44860;53.020;6.738;2024-01-30T02:37:46;7.40;99.90
59075;DHT22;44860;53.020;6.738;2024-01-30T02:40:12;7.40;99.90
59075;DHT22;44860;53.020;6.738;2024-01-30T02:42:38;7.40;99.90
59075;DHT22;44860;53.020;6.738;2024-01-30T02:45:04;7.40;99.90
59075;DHT22;44860;53.020;6.738;2024-01-30T02:47:30;7.40;99.90
59075;DHT22;44860;53.020;6.738;2024-01-30T02:49:56;7.40;99.90
59075;DHT22;44860;53.020;6.738;2024-01-30T02:52:22;7.40;99.90
59075;DHT22;44860;53.020;6.738;2024-01-30T02:54:47;7.40;99.90
59075;DHT22;44860;53.020;6.738;2024-01-30T02:57:13;7.40;99.90
59075;DHT22;44860;53.020;6.738;2024-01-30T02:59:38;7.40;99.90
59075;DHT22;44860;53.020;6.738;2024-01-30T03:02:04;7.40;99.90
59075;DHT22;44860;53.020;6.738;2024-01-30T03:04:30;7.40;99.90
59075;DHT22;44860;53.020;6.738;2024-01-30T03:06:56;7.40;99.90
59075;DHT22;44860;53.020;6.738;2024-01-30T03:09:21;7.40;99.90
59075;DHT22;44860;53.020;6.738;2024-01-30T03:11:47;7.40;99.90
59075;DHT22;44860;53.020;6.738;2024-01-30T03:17:54;7.40;99.90
59075;DHT22;44860;53.020;6.738;2024-01-30T03:20:19;7.50;99.90
59075;DHT22;44860;53.020;6.738;2024-01-30T03:22:45;7.40;99.90
59075;DHT22;44860;53.020;6.738;2024-01-30T03:25:10;7.50;99.90
59075;DHT22;44860;53.020;6.738;2024-01-30T03:27:36;7.50;99.90
59075;DHT22;44860;53.020;6.738;2024-01-30T03:30:02;7.50;99.90
59075;DHT22;44860;53.020;6.738;2024-01-30T03:32:28;7.50;99.90
59075;DHT22;44860;53.020;6.738;2024-01-30T03:34:54;7.50;99.90
59075;DHT22;44860;53.020;6.738;2024-01-30T03:37:19;7.50;99.90
59075;DHT22;44860;53.020;6.738;2024-01-30T03:39:45;7.50;99.90
59075;DHT22;44860;53.020;6.738;2024-01-30T03:42:11;7.50;99.90
59075;DHT22;44860;53.020;6.738;2024-01-30T03:44:37;7.50;99.90
59075;DHT22;44860;53.020;6.738;2024-01-30T03:47:02;7.60;99.90
59075;DHT22;44860;53.020;6.738;2024-01-30T03:49:28;7.60;99.90
59075;DHT22;44860;53.020;6.738;2024-01-30T03:51:54;7.60;99.90
59075;DHT22;44860;53.020;6.738;2024-01-30T03:54:38;7.60;99.90
59075;DHT22;44860;53.020;6.738;2024-01-30T03:57:05;7.60;99.90
59075;DHT22;44860;53.020;6.738;2024-01-30T03:59:31;7.70;99.90
59075;DHT22;44860;53.020;6.738;2024-01-30T04:01:56;7.70;99.90
59075;DHT22;44860;53.020;6.738;2024-01-30T04:04:22;7.60;99.90
59075;DHT22;44860;53.020;6.738;2024-01-30T04:06:48;7.70;99.90
59075;DHT22;44860;53.020;6.738;2024-01-30T04:09:14;7.70;99.90
59075;DHT22;44860;53.020;6.738;2024-01-30T04:11:40;7.70;99.90
59075;DHT22;44860;53.020;6.738;2024-01-30T04:14:06;7.80;99.90
59075;DHT22;44860;53.020;6.738;2024-01-30T04:16:31;7.80;99.90
59075;DHT22;44860;53.020;6.738;2024-01-30T04:18:58;7.80;99.90
59075;DHT22;44860;53.020;6.738;2024-01-30T04:21:23;7.90;99.90
59075;DHT22;44860;53.020;6.738;2024-01-30T04:23:51;7.90;99.90
59075;DHT22;44860;53.020;6.738;2024-01-30T04:26:18;7.90;99.90
59075;DHT22;44860;53.020;6.738;2024-01-30T04:28:45;7.90;99.90
59075;DHT22;44860;53.020;6.738;2024-01-30T04:31:11;7.90;99.90
59075;DHT22;44860;53.020;6.738;2024-01-30T04:33:37;7.90;99.90
59075;DHT22;44860;53.020;6.738;2024-01-30T04:36:03;7.90;99.90
59075;DHT22;44860;53.020;6.738;2024-01-30T04:38:31;8.00;99.90
59075;DHT22;44860;53.020;6.738;2024-01-30T04:40:56;8.00;99.90
59075;DHT22;44860;53.020;6.738;2024-01-30T04:43:22;8.00;99.90
59075;DHT22;44860;53.020;6.738;2024-01-30T04:45:49;8.00;99.90
59075;DHT22;44860;53.020;6.738;2024-01-30T04:48:15;8.00;99.90
59075;DHT22;44860;53.020;6.738;2024-01-30T04:50:40;8.00;99.90
59075;DHT22;44860;53.020;6.738;2024-01-30T04:53:06;8.00;99.90
59075;DHT22;44860;53.020;6.738;2024-01-30T04:55:33;8.00;99.90
59075;DHT22;44860;53.020;6.738;2024-01-30T04:57:58;8.00;99.90
59075;DHT22;44860;53.020;6.738;2024-01-30T05:00:24;8.00;99.90
59075;DHT22;44860;53.020;6.738;2024-01-30T05:02:50;8.10;99.90
59075;DHT22;44860;53.020;6.738;2024-01-30T05:05:15;8.10;99.90
59075;DHT22;44860;53.020;6.738;2024-01-30T05:07:42;8.10;99.90
59075;DHT22;44860;53.020;6.738;2024-01-30T05:10:08;8.10;99.90
59075;DHT22;44860;53.020;6.738;2024-01-30T05:12:34;8.10;99.90
59075;DHT22;44860;53.020;6.738;2024-01-30T05:14:59;8.10;99.90
59075;DHT22;44860;53.020;6.738;2024-01-30T05:17:25;8.10;99.90
59075;DHT22;44860;53.020;6.738;2024-01-30T05:19:50;8.10;99.90
59075;DHT22;44860;53.020;6.738;2024-01-30T05:22:16;8.10;99.90
59075;DHT22;44860;53.020;6.738;2024-01-30T05:24:44;8.10;99.90
59075;DHT22;44860;53.020;6.738;2024-01-30T05:27:09;8.10;99.90
59075;DHT22;44860;53.020;6.738;2024-01-30T05:29:35;8.10;99.90
59075;DHT22;44860;53.020;6.738;2024-01-30T05:32:01;8.10;99.90
59075;DHT22;44860;53.020;6.738;2024-01-30T05:34:27;8.10;99.90
59075;DHT22;44860;53.020;6.738;2024-01-30T05:36:53;8.10;99.90
59075;DHT22;44860;53.020;6.738;2024-01-30T05:39:18;8.10;99.90
59075;DHT22;44860;53.020;6.738;2024-01-30T05:41:44;8.10;99.90
59075;DHT22;44860;53.020;6.738;2024-01-30T05:44:10;8.10;99.90
59075;DHT22;44860;53.020;6.738;2024-01-30T05:46:35;8.20;99.90
59075;DHT22;44860;53.020;6.738;2024-01-30T05:49:01;8.10;99.90
59075;DHT22;44860;53.020;6.738;2024-01-30T05:51:28;8.10;99.90
59075;DHT22;44860;53.020;6.738;2024-01-30T05:53:58;8.10;99.90
59075;DHT22;44860;53.020;6.738;2024-01-30T05:56:23;8.20;99.90
59075;DHT22;44860;53.020;6.738;2024-01-30T05:58:49;8.10;99.90
59075;DHT22;44860;53.020;6.738;2024-01-30T06:01:16;8.10;99.90
59075;DHT22;44860;53.020;6.738;2024-01-30T06:03:41;8.20;99.90
59075;DHT22;44860;53.020;6.738;2024-01-30T06:06:09;8.20;99.90
59075;DHT22;44860;53.020;6.738;2024-01-30T06:08:34;8.20;99.90
59075;DHT22;44860;53.020;6.738;2024-01-30T06:11:00;8.20;99.90
59075;DHT22;44860;53.020;6.738;2024-01-30T06:13:26;8.20;99.90
59075;DHT22;44860;53.020;6.738;2024-01-30T06:15:52;8.20;99.90
59075;DHT22;44860;53.020;6.738;2024-01-30T06:18:18;8.20;99.90
59075;DHT22;44860;53.020;6.738;2024-01-30T06:20:44;8.20;99.90
59075;DHT22;44860;53.020;6.738;2024-01-30T06:23:09;8.20;99.90
59075;DHT22;44860;53.020;6.738;2024-01-30T06:25:35;8.30;99.90
59075;DHT22;44860;53.020;6.738;2024-01-30T06:28:01;8.20;99.90
59075;DHT22;44860;53.020;6.738;2024-01-30T06:30:26;8.30;99.90
59075;DHT22;44860;53.020;6.738;2024-01-30T06:32:52;8.30;99.90
59075;DHT22;44860;53.020;6.738;2024-01-30T06:35:18;8.30;99.90
59075;DHT22;44860;53.020;6.738;2024-01-30T06:37:44;8.30;99.90
59075;DHT22;44860;53.020;6.738;2024-01-30T06:40:10;8.30;99.90
59075;DHT22;44860;53.020;6.738;2024-01-30T06:42:35;8.30;99.90
59075;DHT22;44860;53.020;6.738;2024-01-30T06:45:01;8.30;99.90
59075;DHT22;44860;53.020;6.738;2024-01-30T06:47:27;8.30;99.90
59075;DHT22;44860;53.020;6.738;2024-01-30T06:49:54;8.30;99.90
59075;DHT22;44860;53.020;6.738;2024-01-30T06:52:19;8.30;99.90
59075;DHT22;44860;53.020;6.738;2024-01-30T06:54:45;8.30;99.90
59075;DHT22;44860;53.020;6.738;2024-01-30T06:57:11;8.30;99.90
59075;DHT22;44860;53.020;6.738;2024-01-30T06:59:38;8.30;99.90
59075;DHT22;44860;53.020;6.738;2024-01-30T07:02:12;8.30;99.90
59075;DHT22;44860;53.020;6.738;2024-01-30T07:04:37;8.30;99.90
59075;DHT22;44860;53.020;6.738;2024-01-30T07:07:04;8.30;99.90
59075;DHT22;44860;53.020;6.738;2024-01-30T07:09:37;8.30;99.90
59075;DHT22;44860;53.020;6.738;2024-01-30T07:12:03;8.30;99.90
59075;DHT22;44860;53.020;6.738;2024-01-30T07:14:28;8.30;99.90
59075;DHT22;44860;53.020;6.738;2024-01-30T07:16:54;8.40;99.90
59075;DHT22;44860;53.020;6.738;2024-01-30T07:19:20;8.40;99.90
59075;DHT22;44860;53.020;6.738;2024-01-30T07:25:26;8.40;99.90
59075;DHT22;44860;53.020;6.738;2024-01-30T07:27:53;8.40;99.90
59075;DHT22;44860;53.020;6.738;2024-01-30T07:30:19;8.40;99.90
59075;DHT22;44860;53.020;6.738;2024-01-30T07:32:46;8.40;99.90
59075;DHT22;44860;53.020;6.738;2024-01-30T07:35:12;8.40;99.90
59075;DHT22;44860;53.020;6.738;2024-01-30T07:37:37;8.40;99.90
59075;DHT22;44860;53.020;6.738;2024-01-30T07:40:04;8.50;99.90
59075;DHT22;44860;53.020;6.738;2024-01-30T07:42:32;8.40;99.90
59075;DHT22;44860;53.020;6.738;2024-01-30T07:44:58;8.40;99.90
59075;DHT22;44860;53.020;6.738;2024-01-30T07:47:23;8.40;99.90
59075;DHT22;44860;53.020;6.738;2024-01-30T07:49:49;8.40;99.90
59075;DHT22;44860;53.020;6.738;2024-01-30T07:52:15;8.40;99.90
59075;DHT22;44860;53.020;6.738;2024-01-30T07:54:50;8.40;99.90
59075;DHT22;44860;53.020;6.738;2024-01-30T07:57:16;8.40;99.90
59075;DHT22;44860;53.020;6.738;2024-01-30T07:59:43;8.40;99.90
59075;DHT22;44860;53.020;6.738;2024-01-30T08:02:15;8.40;99.90
59075;DHT22;44860;53.020;6.738;2024-01-30T08:04:40;8.40;99.90
59075;DHT22;44860;53.020;6.738;2024-01-30T08:07:06;8.40;99.90
59075;DHT22;44860;53.020;6.738;2024-01-30T08:09:32;8.40;99.90
59075;DHT22;44860;53.020;6.738;2024-01-30T08:11:58;8.40;99.90
59075;DHT22;44860;53.020;6.738;2024-01-30T08:14:24;8.40;99.90
59075;DHT22;44860;53.020;6.738;2024-01-30T08:16:49;8.40;99.90
59075;DHT22;44860;53.020;6.738;2024-01-30T08:19:15;8.40;99.90
59075;DHT22;44860;53.020;6.738;2024-01-30T08:21:41;8.40;99.90
59075;DHT22;44860;53.020;6.738;2024-01-30T08:24:07;8.40;99.90
59075;DHT22;44860;53.020;6.738;2024-01-30T08:26:33;8.50;99.90
59075;DHT22;44860;53.020;6.738;2024-01-30T08:32:40;8.50;99.90
59075;DHT22;44860;53.020;6.738;2024-01-30T08:35:06;8.50;99.90
59075;DHT22;44860;53.020;6.738;2024-01-30T08:37:32;8.50;99.90
59075;DHT22;44860;53.020;6.738;2024-01-30T08:39:57;8.50;99.90
59075;DHT22;44860;53.020;6.738;2024-01-30T08:42:23;8.60;99.90
59075;DHT22;44860;53.020;6.738;2024-01-30T08:48:05;8.60;99.90
59075;DHT22;44860;53.020;6.738;2024-01-30T08:50:31;8.60;99.90
59075;DHT22;44860;53.020;6.738;2024-01-30T08:56:37;8.70;99.90
59075;DHT22;44860;53.020;6.738;2024-01-30T08:59:03;8.70;99.90
59075;DHT22;44860;53.020;6.738;2024-01-30T09:01:28;8.70;99.90
59075;DHT22;44860;53.020;6.738;2024-01-30T09:03:54;8.80;99.90
59075;DHT22;44860;53.020;6.738;2024-01-30T09:06:20;8.80;99.90
59075;DHT22;44860;53.020;6.738;2024-01-30T09:08:45;8.80;99.90
59075;DHT22;44860;53.020;6.738;2024-01-30T09:11:13;8.80;99.90
59075;DHT22;44860;53.020;6.738;2024-01-30T09:13:39;8.90;99.90
59075;DHT22;44860;53.020;6.738;2024-01-30T09:16:05;8.90;99.90
59075;DHT22;44860;53.020;6.738;2024-01-30T09:18:31;8.90;99.90
59075;DHT22;44860;53.020;6.738;2024-01-30T09:20:57;9.00;99.90
59075;DHT22;44860;53.020;6.738;2024-01-30T09:23:23;9.00;99.90
59075;DHT22;44860;53.020;6.738;2024-01-30T09:25:49;9.00;99.90
59075;DHT22;44860;53.020;6.738;2024-01-30T09:28:14;9.00;99.90
59075;DHT22;44860;53.020;6.738;2024-01-30T09:30:40;9.00;99.90
59075;DHT22;44860;53.020;6.738;2024-01-30T09:33:17;9.10;99.90
59075;DHT22;44860;53.020;6.738;2024-01-30T09:35:43;9.10;99.90
59075;DHT22;44860;53.020;6.738;2024-01-30T09:38:09;9.10;99.90
59075;DHT22;44860;53.020;6.738;2024-01-30T09:40:36;9.20;99.90
59075;DHT22;44860;53.020;6.738;2024-01-30T09:43:02;9.20;99.90
59075;DHT22;44860;53.020;6.738;2024-01-30T09:45:28;9.20;99.90
59075;DHT22;44860;53.020;6.738;2024-01-30T09:47:54;9.30;99.90
59075;DHT22;44860;53.020;6.738;2024-01-30T09:50:21;9.30;99.90
59075;DHT22;44860;53.020;6.738;2024-01-30T09:52:47;9.40;99.90
59075;DHT22;44860;53.020;6.738;2024-01-30T09:55:13;9.40;99.90
59075;DHT22;44860;53.020;6.738;2024-01-30T09:57:41;9.50;99.90
59075;DHT22;44860;53.020;6.738;2024-01-30T10:03:50;9.60;99.90
59075;DHT22;44860;53.020;6.738;2024-01-30T10:06:17;9.60;99.90
59075;DHT22;44860;53.020;6.738;2024-01-30T10:08:43;9.70;99.90
59075;DHT22;44860;53.020;6.738;2024-01-30T10:11:09;9.70;99.90
59075;DHT22;44860;53.020;6.738;2024-01-30T10:13:35;9.80;99.90
59075;DHT22;44860;53.020;6.738;2024-01-30T10:16:00;9.80;99.90
59075;DHT22;44860;53.020;6.738;2024-01-30T10:18:28;9.90;99.90
59075;DHT22;44860;53.020;6.738;2024-01-30T10:20:54;9.90;99.90
59075;DHT22;44860;53.020;6.738;2024-01-30T10:23:20;9.90;99.90
59075;DHT22;44860;53.020;6.738;2024-01-30T10:26:20;9.90;99.90
59075;DHT22;44860;53.020;6.738;2024-01-30T10:28:46;10.00;99.90
59075;DHT22;44860;53.020;6.738;2024-01-30T10:31:16;10.00;99.90
59075;DHT22;44860;53.020;6.738;2024-01-30T10:33:44;10.00;99.90
59075;DHT22;44860;53.020;6.738;2024-01-30T10:36:13;10.10;99.90
59075;DHT22;44860;53.020;6.738;2024-01-30T10:38:42;10.10;99.90
59075;DHT22;44860;53.020;6.738;2024-01-30T10:41:08;10.10;99.90
59075;DHT22;44860;53.020;6.738;2024-01-30T10:43:41;10.20;99.90
59075;DHT22;44860;53.020;6.738;2024-01-30T10:46:19;10.20;99.90
59075;DHT22;44860;53.020;6.738;2024-01-30T10:48:57;10.20;99.90
59075;DHT22;44860;53.020;6.738;2024-01-30T10:51:27;10.30;99.90
59075;DHT22;44860;53.020;6.738;2024-01-30T10:53:53;10.20;99.90
59075;DHT22;44860;53.020;6.738;2024-01-30T10:56:23;10.30;99.90
59075;DHT22;44860;53.020;6.738;2024-01-30T10:58:53;10.40;99.90
59075;DHT22;44860;53.020;6.738;2024-01-30T11:01:20;10.40;99.90
59075;DHT22;44860;53.020;6.738;2024-01-30T11:03:51;10.40;99.90
59075;DHT22;44860;53.020;6.738;2024-01-30T11:06:17;10.40;99.90
59075;DHT22;44860;53.020;6.738;2024-01-30T11:08:45;10.40;99.90
59075;DHT22;44860;53.020;6.738;2024-01-30T11:11:11;10.50;99.90
59075;DHT22;44860;53.020;6.738;2024-01-30T11:17:00;10.50;99.90
59075;DHT22;44860;53.020;6.738;2024-01-30T11:19:26;10.50;99.90
59075;DHT22;44860;53.020;6.738;2024-01-30T11:25:33;10.50;99.90
59075;DHT22;44860;53.020;6.738;2024-01-30T11:27:59;10.50;99.90
59075;DHT22;44860;53.020;6.738;2024-01-30T11:30:29;10.60;99.90
59075;DHT22;44860;53.020;6.738;2024-01-30T11:35:25;10.60;99.90
59075;DHT22;44860;53.020;6.738;2024-01-30T11:38:01;10.60;99.90
59075;DHT22;44860;53.020;6.738;2024-01-30T11:40:28;10.60;99.90
59075;DHT22;44860;53.020;6.738;2024-01-30T11:42:55;10.60;99.90
59075;DHT22;44860;53.020;6.738;2024-01-30T11:45:21;10.70;99.90
59075;DHT22;44860;53.020;6.738;2024-01-30T11:47:47;10.60;99.90
59075;DHT22;44860;53.020;6.738;2024-01-30T11:50:13;10.70;99.90
59075;DHT22;44860;53.020;6.738;2024-01-30T11:52:39;10.70;99.90
59075;DHT22;44860;53.020;6.738;2024-01-30T11:55:05;10.70;99.90
59075;DHT22;44860;53.020;6.738;2024-01-30T11:57:31;10.70;99.90
59075;DHT22;44860;53.020;6.738;2024-01-30T11:59:57;10.70;99.90
59075;DHT22;44860;53.020;6.738;2024-01-30T12:02:22;10.80;99.90
59075;DHT22;44860;53.020;6.738;2024-01-30T12:04:48;10.70;99.90
59075;DHT22;44860;53.020;6.738;2024-01-30T12:07:14;10.70;99.90
59075;DHT22;44860;53.020;6.738;2024-01-30T12:09:42;10.80;99.90
59075;DHT22;44860;53.020;6.738;2024-01-30T12:12:08;10.80;99.90
59075;DHT22;44860;53.020;6.738;2024-01-30T12:14:39;10.80;99.90
59075;DHT22;44860;53.020;6.738;2024-01-30T12:17:05;10.80;99.90
59075;DHT22;44860;53.020;6.738;2024-01-30T12:19:30;10.80;99.90
59075;DHT22;44860;53.020;6.738;2024-01-30T12:21:57;10.80;99.90
59075;DHT22;44860;53.020;6.738;2024-01-30T12:24:27;10.80;99.90
59075;DHT22;44860;53.020;6.738;2024-01-30T12:26:57;10.90;99.90
59075;DHT22;44860;53.020;6.738;2024-01-30T12:33:04;10.80;99.90
59075;DHT22;44860;53.020;6.738;2024-01-30T12:35:32;10.70;99.90
59075;DHT22;44860;53.020;6.738;2024-01-30T12:37:58;10.60;99.90
59075;DHT22;44860;53.020;6.738;2024-01-30T12:40:23;10.60;99.90
59075;DHT22;44860;53.020;6.738;2024-01-30T12:42:52;10.60;99.90
59075;DHT22;44860;53.020;6.738;2024-01-30T12:48:58;10.60;99.90
59075;DHT22;44860;53.020;6.738;2024-01-30T12:51:25;10.60;99.90
59075;DHT22;44860;53.020;6.738;2024-01-30T12:53:53;10.60;99.90
59075;DHT22;44860;53.020;6.738;2024-01-30T12:56:19;10.50;99.90
59075;DHT22;44860;53.020;6.738;2024-01-30T12:58:44;10.50;99.90
59075;DHT22;44860;53.020;6.738;2024-01-30T13:01:12;10.50;99.90
59075;DHT22;44860;53.020;6.738;2024-01-30T13:03:37;10.50;99.90
59075;DHT22;44860;53.020;6.738;2024-01-30T13:06:04;10.50;99.90
59075;DHT22;44860;53.020;6.738;2024-01-30T13:08:30;10.50;99.90
59075;DHT22;44860;53.020;6.738;2024-01-30T13:10:55;10.40;99.90
59075;DHT22;44860;53.020;6.738;2024-01-30T13:13:21;10.40;99.90
59075;DHT22;44860;53.020;6.738;2024-01-30T13:15:48;10.40;99.90
59075;DHT22;44860;53.020;6.738;2024-01-30T13:18:14;10.30;99.90
59075;DHT22;44860;53.020;6.738;2024-01-30T13:20:39;10.30;99.90
59075;DHT22;44860;53.020;6.738;2024-01-30T13:23:05;10.30;99.90
59075;DHT22;44860;53.020;6.738;2024-01-30T13:25:31;10.20;99.90
59075;DHT22;44860;53.020;6.738;2024-01-30T13:27:57;10.20;99.90
59075;DHT22;44860;53.020;6.738;2024-01-30T13:30:22;10.20;99.90
59075;DHT22;44860;53.020;6.738;2024-01-30T13:32:48;10.20;99.90
59075;DHT22;44860;53.020;6.738;2024-01-30T13:35:14;10.20;99.90
59075;DHT22;44860;53.020;6.738;2024-01-30T13:37:42;10.20;99.90
59075;DHT22;44860;53.020;6.738;2024-01-30T13:40:08;10.20;99.90
59075;DHT22;44860;53.020;6.738;2024-01-30T13:42:34;10.10;99.90
59075;DHT22;44860;53.020;6.738;2024-01-30T13:45:00;10.10;99.90
59075;DHT22;44860;53.020;6.738;2024-01-30T13:47:26;10.10;99.90
59075;DHT22;44860;53.020;6.738;2024-01-30T13:49:52;10.10;99.90
59075;DHT22;44860;53.020;6.738;2024-01-30T13:52:18;10.10;99.90
59075;DHT22;44860;53.020;6.738;2024-01-30T13:54:44;10.10;99.90
59075;DHT22;44860;53.020;6.738;2024-01-30T13:57:09;10.10;99.90
59075;DHT22;44860;53.020;6.738;2024-01-30T13:59:37;10.10;99.90
59075;DHT22;44860;53.020;6.738;2024-01-30T14:02:03;10.10;99.90
59075;DHT22;44860;53.020;6.738;2024-01-30T14:08:54;10.10;99.90
59075;DHT22;44860;53.020;6.738;2024-01-30T14:11:20;10.10;99.90
59075;DHT22;44860;53.020;6.738;2024-01-30T14:13:45;10.10;99.90
59075;DHT22;44860;53.020;6.738;2024-01-30T14:16:11;10.10;99.90
59075;DHT22;44860;53.020;6.738;2024-01-30T14:18:37;10.00;99.90
59075;DHT22;44860;53.020;6.738;2024-01-30T14:21:02;10.10;99.90
59075;DHT22;44860;53.020;6.738;2024-01-30T14:23:28;10.10;99.90
59075;DHT22;44860;53.020;6.738;2024-01-30T14:25:54;10.00;99.90
59075;DHT22;44860;53.020;6.738;2024-01-30T14:28:19;10.00;99.90
59075;DHT22;44860;53.020;6.738;2024-01-30T14:30:45;10.00;99.90
59075;DHT22;44860;53.020;6.738;2024-01-30T14:33:10;10.00;99.90
59075;DHT22;44860;53.020;6.738;2024-01-30T14:35:37;10.00;99.90
59075;DHT22;44860;53.020;6.738;2024-01-30T14:38:03;9.90;99.90
59075;DHT22;44860;53.020;6.738;2024-01-30T14:40:30;9.90;99.90
59075;DHT22;44860;53.020;6.738;2024-01-30T14:42:56;9.80;99.90
59075;DHT22;44860;53.020;6.738;2024-01-30T14:45:22;9.80;99.90
59075;DHT22;44860;53.020;6.738;2024-01-30T14:47:47;9.80;99.90
59075;DHT22;44860;53.020;6.738;2024-01-30T14:50:14;9.80;99.90
59075;DHT22;44860;53.020;6.738;2024-01-30T14:52:42;9.70;99.90
59075;DHT22;44860;53.020;6.738;2024-01-30T14:55:07;9.70;99.90
59075;DHT22;44860;53.020;6.738;2024-01-30T14:57:34;9.70;99.90
59075;DHT22;44860;53.020;6.738;2024-01-30T15:00:00;9.60;99.90
59075;DHT22;44860;53.020;6.738;2024-01-30T15:02:26;9.60;99.90
59075;DHT22;44860;53.020;6.738;2024-01-30T15:04:52;9.60;99.90
59075;DHT22;44860;53.020;6.738;2024-01-30T15:07:18;9.50;99.90
59075;DHT22;44860;53.020;6.738;2024-01-30T15:09:44;9.50;99.90
59075;DHT22;44860;53.020;6.738;2024-01-30T15:12:10;9.50;99.90
59075;DHT22;44860;53.020;6.738;2024-01-30T15:14:35;9.40;99.90
59075;DHT22;44860;53.020;6.738;2024-01-30T15:17:17;9.40;99.90
59075;DHT22;44860;53.020;6.738;2024-01-30T15:19:44;9.40;99.90
59075;DHT22;44860;53.020;6.738;2024-01-30T15:22:09;9.40;99.90
59075;DHT22;44860;53.020;6.738;2024-01-30T15:24:35;9.30;99.90
59075;DHT22;44860;53.020;6.738;2024-01-30T15:27:01;9.30;99.90
59075;DHT22;44860;53.020;6.738;2024-01-30T15:29:27;9.20;99.90
59075;DHT22;44860;53.020;6.738;2024-01-30T15:31:55;9.20;99.90
59075;DHT22;44860;53.020;6.738;2024-01-30T15:34:21;9.20;99.90
59075;DHT22;44860;53.020;6.738;2024-01-30T15:36:47;9.20;99.90
59075;DHT22;44860;53.020;6.738;2024-01-30T15:39:14;9.10;99.90
59075;DHT22;44860;53.020;6.738;2024-01-30T15:41:41;9.10;99.90
59075;DHT22;44860;53.020;6.738;2024-01-30T15:44:06;9.10;99.90
59075;DHT22;44860;53.020;6.738;2024-01-30T15:46:32;9.10;99.90
59075;DHT22;44860;53.020;6.738;2024-01-30T15:49:08;9.00;99.90
59075;DHT22;44860;53.020;6.738;2024-01-30T15:51:34;9.00;99.90
59075;DHT22;44860;53.020;6.738;2024-01-30T15:54:00;9.00;99.90
59075;DHT22;44860;53.020;6.738;2024-01-30T15:56:26;9.00;99.90
59075;DHT22;44860;53.020;6.738;2024-01-30T15:58:51;8.90;99.90
59075;DHT22;44860;53.020;6.738;2024-01-30T16:01:17;8.90;99.90
59075;DHT22;44860;53.020;6.738;2024-01-30T16:03:43;8.90;99.90
59075;DHT22;44860;53.020;6.738;2024-01-30T16:06:13;8.90;99.90
59075;DHT22;44860;53.020;6.738;2024-01-30T16:08:40;8.90;99.90
59075;DHT22;44860;53.020;6.738;2024-01-30T16:11:08;8.80;99.90
59075;DHT22;44860;53.020;6.738;2024-01-30T16:13:34;8.80;99.90
59075;DHT22;44860;53.020;6.738;2024-01-30T16:16:04;8.80;99.90
59075;DHT22;44860;53.020;6.738;2024-01-30T16:18:31;8.80;99.90
59075;DHT22;44860;53.020;6.738;2024-01-30T16:20:57;8.80;99.90